createdAt,value
2023-09-12T00:00:24.855Z,64.50
2023-09-12T00:02:51.954Z,64.40
2023-09-12T00:05:18.764Z,64.50
2023-09-12T00:07:45.646Z,64.50
2023-09-12T00:10:12.539Z,64.50
2023-09-12T00:12:39.417Z,64.40
2023-09-12T00:15:06.618Z,64.40
2023-09-12T00:17:33.588Z,64.50
2023-09-12T00:20:00.337Z,64.40
2023-09-12T00:22:27.144Z,64.40
2023-09-12T00:24:54.740Z,64.50
2023-09-12T00:27:21.505Z,64.50
2023-09-12T00:29:48.273Z,64.40
2023-09-12T00:32:15.071Z,64.50
2023-09-12T00:34:41.825Z,64.50
2023-09-12T00:37:08.765Z,64.60
2023-09-12T00:39:35.720Z,64.70
2023-09-12T00:42:02.531Z,64.60
2023-09-12T00:44:29.315Z,64.70
2023-09-12T00:46:58.977Z,64.70
2023-09-12T00:49:27.441Z,64.80
2023-09-12T00:51:55.443Z,64.90
2023-09-12T00:54:22.392Z,64.80
2023-09-12T00:56:49.496Z,64.70
2023-09-12T00:59:18.909Z,64.70
2023-09-12T01:01:45.999Z,64.70
2023-09-12T01:04:28.149Z,64.50
2023-09-12T01:07:00.345Z,64.60
2023-09-12T01:09:27.353Z,64.50
2023-09-12T01:11:54.337Z,64.70
2023-09-12T01:14:21.178Z,64.70
2023-09-12T01:16:47.972Z,64.70
2023-09-12T01:19:17.072Z,64.70
2023-09-12T01:22:08.607Z,64.70
2023-09-12T01:24:44.292Z,64.70
2023-09-12T01:27:24.243Z,64.50
2023-09-12T01:29:57.270Z,64.70
2023-09-12T01:32:24.334Z,64.80
2023-09-12T01:34:51.040Z,64.60
2023-09-12T01:37:17.825Z,64.70
2023-09-12T01:39:44.863Z,64.70
2023-09-12T01:42:16.872Z,64.70
2023-09-12T01:44:48.007Z,64.80
2023-09-12T01:47:18.365Z,64.70
2023-09-12T01:49:50.315Z,64.60
2023-09-12T01:52:17.870Z,64.70
2023-09-12T01:54:46.176Z,64.70
2023-09-12T01:57:14.749Z,64.70
2023-09-12T01:59:41.782Z,64.70
2023-09-12T02:02:08.586Z,64.70
2023-09-12T02:04:35.403Z,64.60
2023-09-12T02:07:02.187Z,64.60
2023-09-12T02:09:29.023Z,64.70
2023-09-12T02:11:55.878Z,64.90
2023-09-12T02:14:22.856Z,64.80
2023-09-12T02:16:49.866Z,64.90
2023-09-12T02:19:16.680Z,64.80
2023-09-12T02:21:43.988Z,64.80
2023-09-12T02:24:10.907Z,64.80
2023-09-12T02:26:37.828Z,64.80
2023-09-12T02:29:07.038Z,64.80
2023-09-12T02:31:33.945Z,64.80
2023-09-12T02:34:00.928Z,64.80
2023-09-12T02:36:29.129Z,64.90
2023-09-12T02:38:56.064Z,64.90
2023-09-12T02:41:22.939Z,64.90
2023-09-12T02:43:49.805Z,64.90
2023-09-12T02:46:16.676Z,64.80
2023-09-12T02:48:43.744Z,64.90
2023-09-12T02:51:10.817Z,64.90
2023-09-12T02:53:37.693Z,64.80
2023-09-12T02:56:04.630Z,65.00
2023-09-12T02:58:31.387Z,65.00
2023-09-12T03:00:58.236Z,65.10
2023-09-12T03:03:25.176Z,65.20
2023-09-12T03:06:00.042Z,65.20
2023-09-12T03:08:27.111Z,65.30
2023-09-12T03:10:58.082Z,65.30
2023-09-12T03:13:28.410Z,65.60
2023-09-12T03:15:55.331Z,65.50
2023-09-12T03:18:22.148Z,65.40
2023-09-12T03:20:49.075Z,65.40
2023-09-12T03:23:15.949Z,65.40
2023-09-12T03:25:42.826Z,65.40
2023-09-12T03:28:10.115Z,65.50
2023-09-12T03:30:38.657Z,65.50
2023-09-12T03:33:06.655Z,65.60
2023-09-12T03:35:34.334Z,65.50
2023-09-12T03:38:01.700Z,65.50
2023-09-12T03:40:32.624Z,65.40
2023-09-12T03:42:59.654Z,65.50
2023-09-12T03:45:26.548Z,65.30
2023-09-12T03:47:53.458Z,65.40
2023-09-12T03:50:20.451Z,65.40
2023-09-12T03:52:47.276Z,65.40
2023-09-12T03:55:14.084Z,65.50
2023-09-12T03:57:41.044Z,65.50
2023-09-12T04:00:09.404Z,65.70
2023-09-12T04:02:36.222Z,65.70
2023-09-12T04:05:03.388Z,65.60
2023-09-12T04:07:30.152Z,65.60
2023-09-12T04:09:56.877Z,65.80
2023-09-12T04:12:23.752Z,65.70
2023-09-12T04:14:52.317Z,65.80
2023-09-12T04:17:19.380Z,65.90
2023-09-12T04:19:46.187Z,65.80
2023-09-12T04:22:13.001Z,65.80
2023-09-12T04:24:40.014Z,65.80
2023-09-12T04:27:07.153Z,65.70
2023-09-12T04:29:37.118Z,65.70
2023-09-12T04:32:05.283Z,65.90
2023-09-12T04:34:33.398Z,65.90
2023-09-12T04:37:00.282Z,65.70
2023-09-12T04:39:27.221Z,65.80
2023-09-12T04:41:54.184Z,65.80
2023-09-12T04:44:20.924Z,65.70
2023-09-12T04:46:49.565Z,65.60
2023-09-12T04:49:16.280Z,65.70
2023-09-12T04:51:50.173Z,65.60
2023-09-12T04:54:17.035Z,65.80
2023-09-12T04:56:43.861Z,65.60
2023-09-12T04:59:10.658Z,65.70
2023-09-12T05:01:37.444Z,65.70
2023-09-12T05:04:04.650Z,65.70
2023-09-12T05:06:31.728Z,65.90
2023-09-12T05:08:58.698Z,65.80
2023-09-12T05:11:25.879Z,65.80
2023-09-12T05:13:53.772Z,65.90
2023-09-12T05:16:20.916Z,65.90
2023-09-12T05:18:50.305Z,65.80
2023-09-12T05:21:17.332Z,65.80
2023-09-12T05:23:44.160Z,65.80
2023-09-12T05:26:16.972Z,65.80
2023-09-12T05:28:43.888Z,65.80
2023-09-12T05:31:15.138Z,65.50
2023-09-12T05:33:41.949Z,65.80
2023-09-12T05:36:08.757Z,65.70
2023-09-12T05:38:35.541Z,65.70
2023-09-12T05:41:03.089Z,65.60
2023-09-12T05:43:30.945Z,65.60
2023-09-12T05:45:59.275Z,65.70
2023-09-12T05:48:26.210Z,65.60
2023-09-12T05:50:52.962Z,65.60
2023-09-12T05:53:19.718Z,65.60
2023-09-12T05:55:46.544Z,65.60
2023-09-12T05:58:13.337Z,65.70
2023-09-12T06:00:40.274Z,66.00
2023-09-12T06:03:07.158Z,66.20
2023-09-12T06:05:34.064Z,66.10
2023-09-12T06:08:01.040Z,66.00
2023-09-12T06:10:27.955Z,66.00
2023-09-12T06:12:54.818Z,65.90
2023-09-12T06:15:21.608Z,66.00
2023-09-12T06:17:48.479Z,65.80
2023-09-12T06:20:15.280Z,65.80
2023-09-12T06:22:41.994Z,65.70
2023-09-12T06:25:08.922Z,65.70
2023-09-12T06:27:35.928Z,65.60
2023-09-12T06:30:02.949Z,65.50
2023-09-12T06:32:29.839Z,65.40
2023-09-12T06:34:56.773Z,65.40
2023-09-12T06:37:23.511Z,65.40
2023-09-12T06:39:52.004Z,65.30
2023-09-12T06:42:18.951Z,65.40
2023-09-12T06:44:45.894Z,65.40
2023-09-12T06:47:12.991Z,65.40
2023-09-12T06:49:39.985Z,65.40
2023-09-12T06:52:07.494Z,65.20
2023-09-12T06:54:35.016Z,65.30
2023-09-12T06:57:01.944Z,65.30
2023-09-12T06:59:28.718Z,65.30
2023-09-12T07:01:55.434Z,65.30
2023-09-12T07:04:23.028Z,65.40
2023-09-12T07:06:49.948Z,65.50
2023-09-12T07:09:17.529Z,65.30
2023-09-12T07:11:44.319Z,65.70
2023-09-12T07:14:11.464Z,65.90
2023-09-12T07:16:38.726Z,65.70
2023-09-12T07:19:05.669Z,65.70
2023-09-12T07:21:33.256Z,65.70
2023-09-12T07:24:00.087Z,66.00
2023-09-12T07:26:28.492Z,66.20
2023-09-12T07:28:55.763Z,65.90
2023-09-12T07:31:22.662Z,65.80
2023-09-12T07:33:49.856Z,65.80
2023-09-12T07:36:16.807Z,65.60
2023-09-12T07:38:46.440Z,66.10
2023-09-12T07:41:13.401Z,66.30
2023-09-12T07:43:41.596Z,66.50
2023-09-12T07:46:08.872Z,66.60
2023-09-12T07:48:35.691Z,66.50
2023-09-12T07:51:02.493Z,66.20
2023-09-12T07:53:29.275Z,65.90
2023-09-12T07:56:00.544Z,66.20
2023-09-12T07:58:27.386Z,66.60
2023-09-12T08:00:54.184Z,66.20
2023-09-12T08:03:21.128Z,65.70
2023-09-12T08:05:58.555Z,66.00
2023-09-12T08:08:25.294Z,65.90
2023-09-12T08:10:52.110Z,66.20
2023-09-12T08:13:18.953Z,66.20
2023-09-12T08:15:45.999Z,66.10
2023-09-12T08:18:12.840Z,66.30
2023-09-12T08:20:39.834Z,66.60
2023-09-12T08:23:06.617Z,67.10
2023-09-12T08:25:34.009Z,67.00
2023-09-12T08:28:00.842Z,67.20
2023-09-12T08:30:30.473Z,67.20
2023-09-12T08:32:57.458Z,66.90
2023-09-12T08:35:24.293Z,66.80
2023-09-12T08:37:51.080Z,66.80
2023-09-12T08:40:17.917Z,67.10
2023-09-12T08:42:45.986Z,67.00
2023-09-12T08:45:15.278Z,67.20
2023-09-12T08:47:43.751Z,67.30
2023-09-12T08:50:14.091Z,67.30
2023-09-12T08:52:56.103Z,66.80
2023-09-12T08:55:27.227Z,66.90
2023-09-12T08:57:56.508Z,66.70
2023-09-12T09:00:24.665Z,66.60
2023-09-12T09:02:52.679Z,66.50
2023-09-12T09:05:23.376Z,66.20
2023-09-12T09:07:52.439Z,66.10
2023-09-12T09:10:28.687Z,65.80
2023-09-12T09:13:07.595Z,65.50
2023-09-12T09:15:34.586Z,65.30
2023-09-12T09:18:05.114Z,65.20
2023-09-12T09:20:37.523Z,64.90
2023-09-12T09:23:06.471Z,64.60
2023-09-12T09:25:34.962Z,64.10
2023-09-12T09:28:06.164Z,63.70
2023-09-12T09:30:44.110Z,63.40
2023-09-12T09:33:12.212Z,63.30
2023-09-12T09:35:41.574Z,62.90
2023-09-12T09:38:09.327Z,62.60
2023-09-12T09:40:37.788Z,62.40
2023-09-12T09:43:05.085Z,62.30
2023-09-12T09:45:33.390Z,62.10
2023-09-12T09:48:08.065Z,62.00
2023-09-12T09:50:39.035Z,61.90
2023-09-12T09:53:09.475Z,61.90
2023-09-12T09:55:36.320Z,62.10
2023-09-12T09:58:06.292Z,61.90
2023-09-12T10:00:35.658Z,61.90
2023-09-12T10:03:06.138Z,62.10
2023-09-12T10:05:38.679Z,61.50
2023-09-12T10:08:10.919Z,61.40
2023-09-12T10:10:39.725Z,61.10
2023-09-12T10:13:08.333Z,61.10
2023-09-12T10:15:38.048Z,60.80
2023-09-12T10:20:53.433Z,60.60
2023-09-12T10:23:42.912Z,60.80
2023-09-12T10:26:14.538Z,60.50
2023-09-12T10:28:45.517Z,59.80
2023-09-12T10:31:14.349Z,59.60
2023-09-12T10:33:42.060Z,59.80
2023-09-12T10:36:10.751Z,59.50
2023-09-12T10:38:45.317Z,59.30
2023-09-12T10:41:16.447Z,59.30
2023-09-12T10:43:48.020Z,59.10
2023-09-12T10:46:14.967Z,59.10
2023-09-12T10:48:42.199Z,58.50
2023-09-12T10:51:10.615Z,57.80
2023-09-12T10:53:37.701Z,57.80
2023-09-12T10:56:10.654Z,57.70
2023-09-12T10:59:14.745Z,58.10
2023-09-12T11:01:43.919Z,58.60
2023-09-12T11:04:25.720Z,58.10
2023-09-12T11:06:52.867Z,57.90
2023-09-12T11:09:23.146Z,57.60
2023-09-12T11:12:11.133Z,57.30
2023-09-12T11:14:57.848Z,57.80
2023-09-12T11:17:24.874Z,57.20
2023-09-12T11:19:54.059Z,56.90
2023-09-12T11:22:30.066Z,56.50
2023-09-12T11:24:57.430Z,56.50
2023-09-12T11:27:26.950Z,56.10
2023-09-12T11:29:53.850Z,56.10
2023-09-12T11:32:37.239Z,56.20
2023-09-12T11:35:11.388Z,56.10
2023-09-12T11:37:38.419Z,56.40
2023-09-12T11:40:26.749Z,55.50
2023-09-12T11:42:54.025Z,56.60
2023-09-12T11:45:22.606Z,55.70
2023-09-12T11:47:49.970Z,56.20
2023-09-12T11:50:33.839Z,55.60
2023-09-12T11:53:11.470Z,56.50
2023-09-12T11:55:47.200Z,56.40
2023-09-12T11:58:18.420Z,56.10
2023-09-12T12:00:56.039Z,55.60
2023-09-12T12:03:28.466Z,55.60
2023-09-12T12:05:56.530Z,55.80
2023-09-12T12:10:54.348Z,55.10
2023-09-12T12:13:22.833Z,54.60
2023-09-12T12:15:50.289Z,54.20
2023-09-12T12:18:17.168Z,54.10
2023-09-12T12:20:44.201Z,54.00
2023-09-12T12:23:11.915Z,53.40
2023-09-12T12:25:38.776Z,53.30
2023-09-12T12:28:06.019Z,53.70
2023-09-12T12:30:35.022Z,53.40
2023-09-12T12:33:12.994Z,54.30
2023-09-12T12:36:05.373Z,54.30
2023-09-12T12:38:41.321Z,54.30
2023-09-12T12:41:12.049Z,53.60
2023-09-12T12:43:42.964Z,53.20
2023-09-12T12:46:13.961Z,52.50
2023-09-12T12:48:46.412Z,52.50
2023-09-12T12:51:24.025Z,52.70
2023-09-12T12:53:55.937Z,53.20
2023-09-12T12:56:24.037Z,52.80
2023-09-12T12:58:53.470Z,52.80
2023-09-12T13:01:20.505Z,53.40
2023-09-12T13:03:48.235Z,53.40
2023-09-12T13:06:15.634Z,53.10
2023-09-12T13:08:43.468Z,53.00
2023-09-12T13:11:11.400Z,52.80
2023-09-12T13:13:39.046Z,52.50
2023-09-12T13:16:06.589Z,53.30
2023-09-12T13:18:36.429Z,53.10
2023-09-12T13:21:05.045Z,52.40
2023-09-12T13:23:32.369Z,53.20
2023-09-12T13:25:59.207Z,53.10
2023-09-12T13:28:28.934Z,52.90
2023-09-12T13:30:56.276Z,53.10
2023-09-12T13:33:23.384Z,53.10
2023-09-12T13:35:51.531Z,53.50
2023-09-12T13:38:20.538Z,53.20
2023-09-12T13:40:48.061Z,52.70
2023-09-12T13:43:15.903Z,52.70
2023-09-12T13:45:42.971Z,53.40
2023-09-12T13:48:10.210Z,53.30
2023-09-12T13:50:37.081Z,53.50
2023-09-12T13:53:07.954Z,53.30
2023-09-12T13:56:01.305Z,53.60
2023-09-12T13:58:23.604Z,53.60
2023-09-12T14:00:51.034Z,53.90
2023-09-12T14:03:17.975Z,53.30
2023-09-12T14:05:45.539Z,53.70
2023-09-12T14:08:12.663Z,53.70
2023-09-12T14:10:40.792Z,53.90
2023-09-12T14:13:20.741Z,54.10
2023-09-12T14:15:51.663Z,54.10
2023-09-12T14:18:19.771Z,53.90
2023-09-12T14:20:48.223Z,53.80
2023-09-12T14:23:16.125Z,54.00
2023-09-12T14:25:43.534Z,53.90
2023-09-12T14:28:11.635Z,53.90
2023-09-12T14:30:39.458Z,53.90
2023-09-12T14:33:06.862Z,53.50
2023-09-12T14:35:33.842Z,53.80
2023-09-12T14:38:00.686Z,53.70
2023-09-12T14:40:28.908Z,53.60
2023-09-12T14:42:56.092Z,53.40
2023-09-12T14:45:23.359Z,53.70
2023-09-12T14:47:50.363Z,53.80
2023-09-12T14:50:17.869Z,53.70
2023-09-12T14:52:45.336Z,53.60
2023-09-12T14:55:12.283Z,53.60
2023-09-12T14:57:39.115Z,54.00
2023-09-12T15:00:06.762Z,53.80
2023-09-12T15:02:33.772Z,53.70
2023-09-12T15:05:06.418Z,53.50
2023-09-12T15:07:34.525Z,53.40
2023-09-12T15:10:01.418Z,53.70
2023-09-12T15:12:28.787Z,53.80
2023-09-12T15:14:55.623Z,53.60
2023-09-12T15:17:22.486Z,53.80
2023-09-12T15:19:49.305Z,53.70
2023-09-12T15:22:17.146Z,53.60
2023-09-12T15:24:44.030Z,53.60
2023-09-12T15:27:10.820Z,53.60
2023-09-12T15:29:37.750Z,53.50
2023-09-12T15:32:07.017Z,53.90
2023-09-12T15:34:33.949Z,54.10
2023-09-12T15:37:20.516Z,54.00
2023-09-12T15:39:49.339Z,54.30
2023-09-12T15:42:29.728Z,54.10
2023-09-12T15:45:02.715Z,54.20
2023-09-12T15:47:31.050Z,54.20
2023-09-12T15:49:58.258Z,54.10
2023-09-12T15:52:25.241Z,54.40
2023-09-12T15:54:53.648Z,54.20
2023-09-12T15:57:20.846Z,54.50
2023-09-12T15:59:48.850Z,54.70
2023-09-12T16:02:15.844Z,54.60
2023-09-12T16:04:43.084Z,54.60
2023-09-12T16:07:09.872Z,54.80
2023-09-12T16:09:36.793Z,54.70
2023-09-12T16:12:04.278Z,55.00
2023-09-12T16:14:31.255Z,55.00
2023-09-12T16:16:58.068Z,55.20
2023-09-12T16:19:24.895Z,55.00
2023-09-12T16:21:51.717Z,55.30
2023-09-12T16:24:18.766Z,55.40
2023-09-12T16:26:46.193Z,55.40
2023-09-12T16:29:12.934Z,55.30
2023-09-12T16:31:40.324Z,55.50
2023-09-12T16:34:07.315Z,55.60
2023-09-12T16:36:34.823Z,55.70
2023-09-12T16:39:01.614Z,55.60
2023-09-12T16:41:28.429Z,55.80
2023-09-12T16:43:57.300Z,55.70
2023-09-12T16:46:24.713Z,56.00
2023-09-12T16:48:51.665Z,56.10
2023-09-12T16:51:18.514Z,56.10
2023-09-12T16:53:45.683Z,56.30
2023-09-12T16:56:12.672Z,56.50
2023-09-12T16:58:40.572Z,56.70
2023-09-12T17:01:07.323Z,56.80
2023-09-12T17:03:34.246Z,57.00
2023-09-12T17:06:02.667Z,57.10
2023-09-12T17:08:29.979Z,57.10
2023-09-12T17:10:56.751Z,57.20
2023-09-12T17:13:23.535Z,57.40
2023-09-12T17:15:50.455Z,57.40
2023-09-12T17:18:17.342Z,57.50
2023-09-12T17:20:44.308Z,57.70
2023-09-12T17:23:11.724Z,57.80
2023-09-12T17:25:38.477Z,57.80
2023-09-12T17:28:05.728Z,57.80
2023-09-12T17:30:32.543Z,58.10
2023-09-12T17:33:02.424Z,58.20
2023-09-12T17:35:29.437Z,58.30
2023-09-12T17:37:56.247Z,58.40
2023-09-12T17:40:23.419Z,58.60
2023-09-12T17:42:51.108Z,58.60
2023-09-12T17:45:17.977Z,58.80
2023-09-12T17:47:44.759Z,58.90
2023-09-12T17:50:11.556Z,59.20
2023-09-12T17:52:39.328Z,59.30
2023-09-12T17:55:06.352Z,59.30
2023-09-12T17:57:33.210Z,59.60
2023-09-12T18:00:00.230Z,59.70
2023-09-12T18:02:27.240Z,59.70
2023-09-12T18:04:54.242Z,59.80
2023-09-12T18:07:22.414Z,60.10
2023-09-12T18:09:51.338Z,60.30
2023-09-12T18:12:18.268Z,60.30
2023-09-12T18:14:45.447Z,60.50
2023-09-12T18:17:12.489Z,60.50
2023-09-12T18:19:39.438Z,60.70
2023-09-12T18:22:07.521Z,60.80
2023-09-12T18:24:34.431Z,60.90
2023-09-12T18:27:01.224Z,61.00
2023-09-12T18:29:28.044Z,61.10
2023-09-12T18:31:56.008Z,61.10
2023-09-12T18:34:22.837Z,61.30
2023-09-12T18:36:49.650Z,61.30
2023-09-12T18:39:21.375Z,61.40
2023-09-12T18:41:48.191Z,61.50
2023-09-12T18:44:15.249Z,61.60
2023-09-12T18:46:42.202Z,61.70
2023-09-12T18:49:09.180Z,61.70
2023-09-12T18:51:36.989Z,61.90
2023-09-12T18:54:04.027Z,62.00
2023-09-12T18:56:31.405Z,61.90
2023-09-12T18:58:58.243Z,62.10
2023-09-12T19:01:25.172Z,62.20
2023-09-12T19:03:52.432Z,62.30
2023-09-12T19:06:19.320Z,62.30
2023-09-12T19:08:46.042Z,62.50
2023-09-12T19:11:12.893Z,62.40
2023-09-12T19:13:42.988Z,62.60
2023-09-12T19:16:10.244Z,62.50
2023-09-12T19:18:38.023Z,62.60
2023-09-12T19:21:06.299Z,62.70
2023-09-12T19:23:33.165Z,62.70
2023-09-12T19:25:59.919Z,62.80
2023-09-12T19:28:26.764Z,62.90
2023-09-12T19:30:54.637Z,63.10
2023-09-12T19:33:21.476Z,63.10
2023-09-12T19:35:48.292Z,63.10
2023-09-12T19:38:15.864Z,63.20
2023-09-12T19:40:42.790Z,63.30
2023-09-12T19:43:11.118Z,63.20
2023-09-12T19:45:39.875Z,63.20
2023-09-12T19:48:11.775Z,63.30
2023-09-12T19:50:39.075Z,63.20
2023-09-12T19:53:06.992Z,63.10
2023-09-12T19:55:34.400Z,63.10
2023-09-12T19:58:01.369Z,63.00
2023-09-12T20:00:29.048Z,63.00
2023-09-12T20:02:59.028Z,62.90
2023-09-12T20:05:28.051Z,63.00
2023-09-12T20:07:54.856Z,63.00
2023-09-12T20:10:22.873Z,62.80
2023-09-12T20:12:51.472Z,62.90
2023-09-12T20:15:18.527Z,62.80
2023-09-12T20:17:48.938Z,62.80
2023-09-12T20:20:19.897Z,62.80
2023-09-12T20:22:49.330Z,62.90
2023-09-12T20:25:16.244Z,63.10
2023-09-12T20:27:43.403Z,63.00
2023-09-12T20:30:10.636Z,63.00
2023-09-12T20:32:51.516Z,63.10
2023-09-12T20:35:26.582Z,63.10
2023-09-12T20:37:53.474Z,63.20
2023-09-12T20:40:20.381Z,63.20
2023-09-12T20:42:49.246Z,63.10
2023-09-12T20:45:16.135Z,63.00
2023-09-12T20:47:42.996Z,63.00
2023-09-12T20:50:11.596Z,63.00
2023-09-12T20:52:39.000Z,63.20
2023-09-12T20:55:06.790Z,63.20
2023-09-12T20:57:36.393Z,63.20
2023-09-12T21:00:06.324Z,63.30
2023-09-12T21:02:35.567Z,63.50
2023-09-12T21:05:02.430Z,63.50
2023-09-12T21:07:29.230Z,63.50
2023-09-12T21:09:56.031Z,63.50
2023-09-12T21:12:25.384Z,63.60
2023-09-12T21:14:52.723Z,63.70
2023-09-12T21:17:19.542Z,63.70
2023-09-12T21:19:46.249Z,63.70
2023-09-12T21:22:13.070Z,63.70
2023-09-12T21:24:40.352Z,63.60
2023-09-12T21:27:09.376Z,63.70
2023-09-12T21:29:36.209Z,63.90
2023-09-12T21:32:03.115Z,63.80
2023-09-12T21:34:29.955Z,63.80
2023-09-12T21:36:56.945Z,63.80
2023-09-12T21:39:23.728Z,63.80
2023-09-12T21:41:50.627Z,63.90
2023-09-12T21:44:17.709Z,63.90
2023-09-12T21:46:44.598Z,63.90
2023-09-12T21:49:11.551Z,63.90
2023-09-12T21:51:38.425Z,64.10
2023-09-12T21:54:05.529Z,64.10
2023-09-12T21:56:32.307Z,64.20
2023-09-12T21:58:59.158Z,64.20
2023-09-12T22:01:26.310Z,64.20
2023-09-12T22:03:53.318Z,64.20
2023-09-12T22:06:20.124Z,64.30
2023-09-12T22:08:46.910Z,64.10
2023-09-12T22:11:15.168Z,64.20
2023-09-12T22:13:42.397Z,64.20
2023-09-12T22:16:09.517Z,64.20
2023-09-12T22:18:36.431Z,64.10
2023-09-12T22:21:08.654Z,64.10
2023-09-12T22:23:37.213Z,64.10
2023-09-12T22:26:14.129Z,64.10
2023-09-12T22:28:40.948Z,64.00
2023-09-12T22:31:12.536Z,64.20
2023-09-12T22:33:43.443Z,64.30
2023-09-12T22:36:18.783Z,64.40
2023-09-12T22:38:47.155Z,64.40
2023-09-12T22:41:13.953Z,64.40
2023-09-12T22:43:40.851Z,64.40
2023-09-12T22:46:08.659Z,64.40
2023-09-12T22:48:35.840Z,64.50
2023-09-12T22:51:02.788Z,64.40
2023-09-12T22:53:30.498Z,64.30
2023-09-12T22:55:57.371Z,64.30
2023-09-12T22:58:24.190Z,64.30
2023-09-12T23:00:51.878Z,64.40
2023-09-12T23:03:18.779Z,64.40
2023-09-12T23:05:46.718Z,64.30
2023-09-12T23:08:13.874Z,64.40
2023-09-12T23:10:40.767Z,64.40
2023-09-12T23:13:07.720Z,64.40
2023-09-12T23:15:36.839Z,64.20
2023-09-12T23:18:04.127Z,64.30
2023-09-12T23:20:34.723Z,64.30
2023-09-12T23:23:02.235Z,64.30
2023-09-12T23:25:29.019Z,64.40
2023-09-12T23:27:55.772Z,64.50
2023-09-12T23:30:22.540Z,64.40
2023-09-12T23:32:49.347Z,64.30
2023-09-12T23:35:16.175Z,64.30
2023-09-12T23:37:43.200Z,64.30
2023-09-12T23:40:10.679Z,64.30
2023-09-12T23:42:39.004Z,64.30
2023-09-12T23:45:06.286Z,64.20
2023-09-12T23:47:33.169Z,64.10
2023-09-12T23:49:59.990Z,64.20
2023-09-12T23:52:28.726Z,64.30
2023-09-12T23:54:55.719Z,64.40
2023-09-12T23:57:22.565Z,64.50
2023-09-12T23:59:49.918Z,64.40
